Los Angeles, California
Traffic Map
Current Weather Conditions
Los Angeles, California
Clear
Clear
67°
Feels Like: 67°
Wind Chill: 67° Ceiling: Unl
Heat Index: 67° Visibility: 10mi
Dew Point: 49° Wind: 6mph
Humidity: 52% Direction: ° ()
Pressure: 30.06in Gusts: 0mph
Raw Report DataKCQT 260047Z AUTO VRB05KT 10SM CLR 19/09 A3006 RMK AO2 SLP176 T01940094 $
Traffic Incident Summary
Active as of:
Severity:
Category:
InformationThere was an issue retrieving the traffic information for this location. Please try a different location or try again shortly.
Advertisements
Track Severe Weather on mobile